Terminal Aerodrome Forecast
Issued by NWS

Home | Current Version | Previous Version | Text Only | Print | Product List | Glossary On
Versions: 1 2 3 4 5 6 7 8 9 10 11 12 13
000
FTUS45 KRIW 271720
TAFCOD
TAF
KCOD 271720Z 2718/2818 02008KT P6SM SCT080
     FM272100 VRB10G16KT P6SM VCTS SCT070CB BKN120
     FM280300 23012G18KT P6SM SCT120
     FM281200 VRB06KT P6SM FEW100 SCT200
      AMD LTD TO CLD VIS AND WIND=

USA.gov is the U.S. government's official web portal to all federal, state and local government web resources and services.